createdAt,value
2017-12-05T00:02:01.406Z,9.52
2017-12-05T00:04:29.576Z,9.93
2017-12-05T00:06:57.854Z,7.47
2017-12-05T00:09:27.596Z,8.13
2017-12-05T00:11:56.453Z,7.97
2017-12-05T00:14:24.650Z,9.73
2017-12-05T00:16:52.813Z,8.65
2017-12-05T00:19:21.067Z,7.87
2017-12-05T00:21:49.856Z,8.60
2017-12-05T00:24:18.806Z,9.20
2017-12-05T00:26:46.981Z,7.80
2017-12-05T00:29:15.189Z,7.97
2017-12-05T00:31:43.631Z,7.68
2017-12-05T00:34:11.818Z,7.62
2017-12-05T00:36:39.957Z,7.03
2017-12-05T00:39:10.151Z,7.28
2017-12-05T00:41:38.301Z,8.05
2017-12-05T00:44:07.210Z,6.80
2017-12-05T00:46:35.364Z,8.32
2017-12-05T00:49:03.654Z,8.65
2017-12-05T00:51:31.813Z,6.95
2017-12-05T00:54:00.735Z,7.80
2017-12-05T00:56:28.893Z,8.32
2017-12-05T00:58:57.161Z,9.30
2017-12-05T01:01:25.318Z,7.75
2017-12-05T01:03:55.117Z,8.68
2017-12-05T01:06:23.278Z,7.90
2017-12-05T01:08:51.504Z,6.87
2017-12-05T01:11:19.673Z,7.45
2017-12-05T01:13:48.818Z,7.10
2017-12-05T01:16:16.970Z,8.65
2017-12-05T01:18:45.228Z,7.47
2017-12-05T01:21:13.486Z,7.03
2017-12-05T01:23:41.737Z,6.35
2017-12-05T01:26:09.898Z,6.72
2017-12-05T01:28:38.112Z,6.07
2017-12-05T01:31:07.056Z,7.00
2017-12-05T01:33:35.676Z,5.32
2017-12-05T01:36:03.822Z,5.85
2017-12-05T01:38:32.079Z,5.85
2017-12-05T01:41:00.283Z,9.75
2017-12-05T01:43:28.425Z,5.80
2017-12-05T01:45:56.590Z,6.55
2017-12-05T01:48:25.570Z,6.57
2017-12-05T01:50:53.731Z,6.47
2017-12-05T01:53:22.650Z,5.95
2017-12-05T01:55:50.808Z,5.75
2017-12-05T01:58:19.973Z,5.80
2017-12-05T02:00:49.598Z,6.10
2017-12-05T02:03:17.740Z,6.45
2017-12-05T02:05:46.386Z,6.40
2017-12-05T02:08:14.638Z,6.90
2017-12-05T02:10:42.781Z,6.18
2017-12-05T02:13:10.946Z,5.97
2017-12-05T02:15:39.110Z,6.30
2017-12-05T02:18:07.341Z,6.22
2017-12-05T02:20:35.499Z,7.53
2017-12-05T02:23:04.424Z,6.50
2017-12-05T02:25:32.581Z,7.65
2017-12-05T02:28:00.869Z,6.03
2017-12-05T02:30:29.022Z,6.35
2017-12-05T02:32:57.951Z,5.60
2017-12-05T02:35:26.103Z,6.65
2017-12-05T02:37:54.370Z,8.15
2017-12-05T02:40:37.401Z,7.93
2017-12-05T02:43:05.799Z,7.50
2017-12-05T02:45:33.955Z,6.47
2017-12-05T02:48:02.232Z,6.72
2017-12-05T02:50:30.386Z,7.45
2017-12-05T02:52:59.324Z,7.12
2017-12-05T02:55:28.271Z,7.43
2017-12-05T02:57:56.603Z,7.65
2017-12-05T03:00:24.762Z,6.57
2017-12-05T03:02:52.929Z,6.35
2017-12-05T03:05:21.073Z,7.82
2017-12-05T03:07:51.066Z,7.70
2017-12-05T03:10:19.214Z,6.20
2017-12-05T03:12:47.358Z,7.68
2017-12-05T03:15:15.532Z,7.35
2017-12-05T03:17:43.782Z,6.85
2017-12-05T03:20:11.956Z,8.00
2017-12-05T03:22:41.350Z,6.55
2017-12-05T03:25:09.904Z,9.10
2017-12-05T03:27:38.126Z,8.13
2017-12-05T03:30:06.307Z,6.93
2017-12-05T03:32:34.498Z,7.15
2017-12-05T03:35:14.464Z,6.85
2017-12-05T03:37:43.310Z,8.43
2017-12-05T03:40:12.212Z,7.40
2017-12-05T03:42:40.358Z,8.50
2017-12-05T03:45:09.283Z,7.93
2017-12-05T03:47:39.498Z,7.93
2017-12-05T03:50:07.661Z,8.20
2017-12-05T03:52:36.579Z,8.45
2017-12-05T03:55:04.721Z,9.05
2017-12-05T03:57:33.022Z,7.25
2017-12-05T04:00:01.164Z,8.02
2017-12-05T04:02:30.073Z,7.90
2017-12-05T04:04:58.253Z,8.63
2017-12-05T04:07:26.552Z,9.70
2017-12-05T04:09:54.705Z,9.30
2017-12-05T04:12:22.855Z,8.27
2017-12-05T04:14:51.027Z,8.05
2017-12-05T04:17:20.044Z,7.90
2017-12-05T04:19:48.206Z,8.55
2017-12-05T04:22:17.126Z,7.47
2017-12-05T04:24:45.274Z,6.55
2017-12-05T04:27:14.195Z,8.02
2017-12-05T04:29:42.577Z,7.97
2017-12-05T04:32:11.143Z,7.85
2017-12-05T04:34:39.277Z,7.57
2017-12-05T04:37:07.444Z,9.15
2017-12-05T04:39:35.603Z,8.23
2017-12-05T04:42:03.772Z,9.13
2017-12-05T04:44:31.951Z,7.55
2017-12-05T04:47:00.757Z,7.93
2017-12-05T04:49:29.596Z,7.50
2017-12-05T04:51:58.640Z,8.43
2017-12-05T04:54:26.818Z,8.18
2017-12-05T04:56:54.971Z,10.23
2017-12-05T04:59:23.122Z,7.55
2017-12-05T05:01:51.282Z,8.25
2017-12-05T05:04:19.441Z,9.10
2017-12-05T05:06:48.486Z,8.77
2017-12-05T05:09:16.708Z,7.97
2017-12-05T05:11:45.620Z,8.55
2017-12-05T05:14:13.793Z,8.00
2017-12-05T05:16:41.936Z,8.38
2017-12-05T05:19:10.276Z,8.30
2017-12-05T05:21:38.430Z,9.07
2017-12-05T05:24:06.642Z,9.85
2017-12-05T05:26:34.812Z,9.32
2017-12-05T05:29:02.995Z,10.32
2017-12-05T05:31:33.025Z,7.90
2017-12-05T05:34:01.173Z,8.63
2017-12-05T05:36:29.335Z,7.62
2017-12-05T05:38:58.489Z,8.70
2017-12-05T05:41:26.647Z,9.15
2017-12-05T05:43:55.705Z,8.23
2017-12-05T05:46:24.515Z,8.55
2017-12-05T05:49:02.839Z,8.40
2017-12-05T05:51:30.992Z,8.98
2017-12-05T05:54:02.542Z,9.18
2017-12-05T05:56:30.705Z,8.90
2017-12-05T05:59:00.892Z,9.43
2017-12-05T06:01:29.054Z,12.15
2017-12-05T06:03:57.244Z,9.20
2017-12-05T06:06:25.414Z,10.23
2017-12-05T06:08:54.622Z,9.30
2017-12-05T06:11:22.777Z,7.93
2017-12-05T06:13:50.922Z,9.98
2017-12-05T06:16:19.086Z,9.20
2017-12-05T06:18:47.509Z,11.32
2017-12-05T06:21:17.122Z,9.85
2017-12-05T06:23:45.299Z,8.48
2017-12-05T06:26:13.570Z,9.15
2017-12-05T06:28:41.840Z,10.07
2017-12-05T06:31:10.024Z,9.70
2017-12-05T06:33:38.311Z,12.43
2017-12-05T06:36:06.481Z,10.70
2017-12-05T06:38:34.745Z,9.20
2017-12-05T06:41:03.726Z,9.63
2017-12-05T06:43:32.658Z,10.68
2017-12-05T06:46:17.789Z,10.70
2017-12-05T06:48:51.114Z,9.45
2017-12-05T06:51:19.277Z,8.88
2017-12-05T06:53:48.269Z,10.13
2017-12-05T06:56:19.747Z,9.88
2017-12-05T06:58:47.991Z,10.95
2017-12-05T07:01:16.180Z,14.15
2017-12-05T07:03:44.364Z,11.70
2017-12-05T07:06:12.524Z,8.77
2017-12-05T07:08:41.725Z,10.90
2017-12-05T07:11:09.889Z,9.25
2017-12-05T07:13:38.054Z,8.65
2017-12-05T07:16:06.517Z,9.02
2017-12-05T07:18:35.856Z,9.57
2017-12-05T07:21:04.027Z,8.00
2017-12-05T07:23:32.948Z,7.68
2017-12-05T07:26:01.076Z,8.90
2017-12-05T07:28:30.347Z,9.05
2017-12-05T07:30:58.717Z,9.05
2017-12-05T07:33:27.836Z,8.68
2017-12-05T07:35:56.785Z,7.80
2017-12-05T07:38:25.945Z,9.07
2017-12-05T07:40:54.658Z,7.35
2017-12-05T07:43:22.799Z,7.40
2017-12-05T07:45:50.985Z,8.05
2017-12-05T07:48:19.294Z,8.13
2017-12-05T07:50:47.480Z,8.10
2017-12-05T07:53:17.083Z,8.57
2017-12-05T07:55:46.189Z,7.72
2017-12-05T07:58:14.404Z,7.62
2017-12-05T08:00:42.641Z,7.00
2017-12-05T08:03:10.860Z,8.40
2017-12-05T08:05:39.053Z,7.12
2017-12-05T08:08:07.821Z,8.63
2017-12-05T08:10:36.017Z,7.25
2017-12-05T08:13:05.042Z,7.80
2017-12-05T08:15:33.250Z,7.82
2017-12-05T08:18:03.200Z,9.20
2017-12-05T08:20:33.970Z,8.32
2017-12-05T08:23:03.437Z,7.68
2017-12-05T08:25:33.687Z,7.10
2017-12-05T08:28:12.432Z,7.78
2017-12-05T08:30:50.203Z,5.50
2017-12-05T08:36:10.586Z,7.07
2017-12-05T08:38:40.030Z,7.32
2017-12-05T08:41:09.495Z,6.57
2017-12-05T08:43:39.756Z,5.93
2017-12-05T08:46:10.825Z,7.50
2017-12-05T08:48:40.374Z,6.80
2017-12-05T08:51:11.163Z,7.00
2017-12-05T08:53:40.599Z,6.20
2017-12-05T08:56:10.751Z,7.12
2017-12-05T08:58:47.459Z,6.93
2017-12-05T09:01:17.747Z,6.82
2017-12-05T09:09:23.869Z,6.25
2017-12-05T09:11:53.593Z,6.50
2017-12-05T09:14:23.307Z,7.15
2017-12-05T09:16:52.717Z,5.85
2017-12-05T09:19:22.160Z,9.32
2017-12-05T09:21:51.650Z,7.43
2017-12-05T09:24:21.120Z,6.75
2017-12-05T09:26:50.583Z,8.10
2017-12-05T09:29:20.041Z,7.32
2017-12-05T09:31:49.714Z,7.72
2017-12-05T09:34:20.719Z,7.30
2017-12-05T09:36:50.660Z,6.22
2017-12-05T09:39:20.156Z,6.93
2017-12-05T09:41:49.614Z,7.43
2017-12-05T09:44:19.894Z,6.75
2017-12-05T09:46:50.105Z,6.95
2017-12-05T09:49:21.202Z,5.78
2017-12-05T09:51:51.480Z,8.13
2017-12-05T09:54:20.885Z,8.30
2017-12-05T09:56:50.312Z,7.85
2017-12-05T09:59:19.732Z,6.72
2017-12-05T10:01:49.828Z,9.45
2017-12-05T10:04:19.233Z,7.10
2017-12-05T10:06:49.173Z,7.32
2017-12-05T10:09:18.564Z,8.00
2017-12-05T10:11:47.979Z,7.50
2017-12-05T10:14:19.277Z,6.78
2017-12-05T10:16:48.698Z,7.47
2017-12-05T10:19:19.274Z,7.62
2017-12-05T10:21:48.947Z,7.25
2017-12-05T10:24:19.264Z,6.25
2017-12-05T10:26:49.821Z,6.35
2017-12-05T10:29:19.252Z,6.05
2017-12-05T10:31:52.709Z,6.00
2017-12-05T10:34:23.361Z,4.68
2017-12-05T10:36:52.778Z,5.47
2017-12-05T10:39:22.249Z,4.15
2017-12-05T10:41:51.819Z,4.50
2017-12-05T10:44:22.294Z,4.62
2017-12-05T10:46:52.675Z,4.78
2017-12-05T10:49:22.163Z,5.40
2017-12-05T10:51:51.576Z,4.72
2017-12-05T10:54:21.831Z,5.30
2017-12-05T10:56:51.253Z,5.03
2017-12-05T10:59:20.670Z,5.72
2017-12-05T11:01:50.328Z,5.20
2017-12-05T11:04:19.746Z,5.35
2017-12-05T11:06:49.170Z,5.28
2017-12-05T11:09:18.599Z,5.03
2017-12-05T11:11:48.386Z,6.22
2017-12-05T11:14:18.070Z,6.47
2017-12-05T11:16:47.542Z,5.43
2017-12-05T11:19:16.959Z,5.12
2017-12-05T11:21:46.389Z,5.12
2017-12-05T11:24:15.793Z,5.97
2017-12-05T11:26:45.228Z,5.45
2017-12-05T11:29:14.641Z,11.00
2017-12-05T11:31:44.066Z,37.22
2017-12-05T11:34:12.127Z,7.62
2017-12-05T11:36:40.267Z,7.12
2017-12-05T11:39:09.184Z,7.00
2017-12-05T11:41:37.353Z,9.90
2017-12-05T11:44:05.729Z,6.80
2017-12-05T11:46:34.826Z,6.65
2017-12-05T11:49:03.094Z,7.53
2017-12-05T11:51:32.687Z,6.57
2017-12-05T11:54:01.461Z,6.53
2017-12-05T11:56:29.624Z,7.28
2017-12-05T11:58:57.854Z,4.82
2017-12-05T12:01:26.044Z,9.50
2017-12-05T12:03:54.207Z,5.90
2017-12-05T12:06:22.574Z,6.65
2017-12-05T12:08:54.354Z,6.43
2017-12-05T12:11:22.926Z,5.62
2017-12-05T12:13:51.196Z,6.30
2017-12-05T12:16:19.625Z,5.00
2017-12-05T12:18:47.937Z,6.82
2017-12-05T12:21:16.963Z,6.32
2017-12-05T12:23:45.886Z,6.20
2017-12-05T12:26:14.840Z,5.10
2017-12-05T12:29:07.892Z,6.68
2017-12-05T12:31:36.023Z,6.20
2017-12-05T12:34:04.191Z,6.87
2017-12-05T12:36:32.339Z,7.32
2017-12-05T12:39:01.609Z,7.37
2017-12-05T12:41:30.453Z,5.95
2017-12-05T12:43:59.154Z,6.30
2017-12-05T12:46:27.324Z,6.57
2017-12-05T12:48:57.162Z,5.25
2017-12-05T12:51:26.347Z,5.43
2017-12-05T12:53:54.526Z,5.75
2017-12-05T12:56:22.714Z,5.28
2017-12-05T12:58:50.954Z,7.80
2017-12-05T13:01:19.667Z,5.43
2017-12-05T13:03:47.988Z,6.95
2017-12-05T13:06:17.638Z,6.60
2017-12-05T13:08:46.793Z,4.70
2017-12-05T13:11:15.098Z,5.07
2017-12-05T13:13:43.313Z,4.87
2017-12-05T13:16:12.103Z,5.15
2017-12-05T13:18:50.129Z,5.18
2017-12-05T13:21:21.636Z,5.35
2017-12-05T13:23:49.857Z,5.50
2017-12-05T13:26:19.763Z,5.35
2017-12-05T13:28:54.201Z,5.35
2017-12-05T13:31:23.853Z,4.78
2017-12-05T13:33:56.616Z,5.50
2017-12-05T13:36:24.844Z,4.65
2017-12-05T13:38:53.847Z,3.85
2017-12-05T13:41:26.398Z,4.85
2017-12-05T13:43:54.619Z,4.55
2017-12-05T13:46:22.819Z,4.60
2017-12-05T13:48:53.215Z,4.82
2017-12-05T13:51:21.454Z,4.60
2017-12-05T13:53:49.618Z,4.85
2017-12-05T13:56:19.535Z,5.47
2017-12-05T13:58:47.851Z,6.20
2017-12-05T14:01:16.075Z,6.35
2017-12-05T14:03:44.683Z,6.22
2017-12-05T14:06:12.882Z,5.75
2017-12-05T14:08:41.193Z,5.43
2017-12-05T14:11:10.847Z,5.37
2017-12-05T14:13:40.390Z,5.72
2017-12-05T14:16:08.661Z,7.68
2017-12-05T14:18:36.967Z,6.43
2017-12-05T14:21:05.183Z,5.90
2017-12-05T14:23:34.185Z,7.15
2017-12-05T14:26:02.333Z,6.40
2017-12-05T14:31:25.180Z,7.75
2017-12-05T14:33:53.328Z,7.12
2017-12-05T14:36:21.709Z,7.97
2017-12-05T14:38:49.923Z,6.82
2017-12-05T14:41:18.086Z,7.70
2017-12-05T14:43:47.033Z,6.78
2017-12-05T14:46:15.195Z,7.53
2017-12-05T14:48:45.364Z,7.70
2017-12-05T14:51:13.518Z,6.45
2017-12-05T14:53:42.944Z,7.60
2017-12-05T14:56:11.080Z,6.93
2017-12-05T14:58:40.257Z,7.25
2017-12-05T15:01:08.427Z,7.37
2017-12-05T15:03:36.582Z,7.35
2017-12-05T15:06:04.733Z,7.82
2017-12-05T15:08:33.983Z,7.15
2017-12-05T15:11:02.780Z,7.85
2017-12-05T15:13:30.952Z,7.53
2017-12-05T15:16:00.058Z,7.18
2017-12-05T15:18:28.538Z,6.60
2017-12-05T15:20:56.766Z,5.90
2017-12-05T15:23:25.688Z,6.68
2017-12-05T15:25:53.840Z,6.68
2017-12-05T15:28:22.930Z,6.72
2017-12-05T15:30:52.030Z,8.82
2017-12-05T15:33:20.970Z,8.00
2017-12-05T15:35:49.155Z,7.07
2017-12-05T15:38:17.424Z,8.10
2017-12-05T15:40:45.588Z,8.13
2017-12-05T15:43:13.793Z,8.32
2017-12-05T15:45:42.922Z,6.85
2017-12-05T15:48:14.487Z,7.87
2017-12-05T15:50:43.840Z,9.18
2017-12-05T15:53:12.505Z,8.05
2017-12-05T15:55:40.672Z,7.22
2017-12-05T15:58:14.394Z,9.50
2017-12-05T16:03:21.774Z,9.20
2017-12-05T16:05:50.186Z,8.35
2017-12-05T16:08:18.401Z,8.82
2017-12-05T16:10:47.422Z,8.35
2017-12-05T16:13:15.609Z,8.65
2017-12-05T16:15:43.780Z,9.75
2017-12-05T16:18:12.970Z,11.40
2017-12-05T16:20:41.138Z,9.40
2017-12-05T16:23:09.302Z,8.98
2017-12-05T16:25:37.509Z,10.25
2017-12-05T16:28:11.971Z,10.55
2017-12-05T16:30:40.342Z,10.13
2017-12-05T16:33:08.565Z,9.13
2017-12-05T16:35:36.856Z,9.52
2017-12-05T16:38:05.206Z,11.68
2017-12-05T16:40:33.380Z,8.95
2017-12-05T16:43:01.586Z,9.80
2017-12-05T16:45:29.738Z,10.00
2017-12-05T16:47:58.002Z,10.38
2017-12-05T16:50:26.164Z,11.60
2017-12-05T16:52:55.085Z,9.35
2017-12-05T16:55:23.246Z,11.05
2017-12-05T16:57:51.571Z,10.00
2017-12-05T17:00:19.763Z,11.12
2017-12-05T17:02:47.940Z,10.80
2017-12-05T17:05:16.107Z,10.15
2017-12-05T17:07:44.250Z,9.07
2017-12-05T17:10:12.659Z,10.77
2017-12-05T17:12:40.986Z,10.95
2017-12-05T17:15:10.285Z,12.82
2017-12-05T17:17:38.549Z,11.38
2017-12-05T17:20:06.705Z,10.95
2017-12-05T17:22:34.952Z,11.27
2017-12-05T17:25:03.135Z,10.68
2017-12-05T17:27:31.284Z,11.52
2017-12-05T17:29:59.480Z,12.75
2017-12-05T17:32:28.435Z,11.48
2017-12-05T17:34:56.584Z,10.50
2017-12-05T17:37:24.750Z,10.60
2017-12-05T17:39:53.678Z,11.50
2017-12-05T17:42:21.838Z,12.02
2017-12-05T17:44:50.000Z,14.13
2017-12-05T17:47:19.396Z,12.63
2017-12-05T17:49:48.328Z,11.90
2017-12-05T17:52:16.499Z,15.98
2017-12-05T17:54:44.642Z,14.65
2017-12-05T17:57:13.844Z,16.55
2017-12-05T17:59:42.136Z,17.92
2017-12-05T18:02:10.288Z,15.52
2017-12-05T18:04:38.676Z,15.73
2017-12-05T18:07:06.951Z,15.23
2017-12-05T18:09:35.160Z,15.25
2017-12-05T18:12:03.347Z,12.35
2017-12-05T18:14:31.503Z,11.90
2017-12-05T18:16:59.671Z,13.15
2017-12-05T18:19:27.845Z,13.62
2017-12-05T18:21:56.101Z,11.98
2017-12-05T18:24:24.285Z,11.77
2017-12-05T18:26:52.928Z,13.52
2017-12-05T18:29:21.102Z,13.73
2017-12-05T18:31:50.048Z,13.57
2017-12-05T18:34:18.226Z,12.68
2017-12-05T18:36:46.402Z,12.10
2017-12-05T18:39:14.622Z,14.18
2017-12-05T18:41:43.798Z,12.30
2017-12-05T18:44:11.953Z,11.82
2017-12-05T18:46:40.113Z,12.40
2017-12-05T18:49:08.275Z,12.82
2017-12-05T18:51:36.438Z,13.43
2017-12-05T18:54:05.301Z,12.48
2017-12-05T18:56:34.237Z,11.98
2017-12-05T18:59:03.746Z,13.05
2017-12-05T19:01:32.892Z,13.93
2017-12-05T19:04:01.056Z,16.52
2017-12-05T19:06:29.824Z,13.30
2017-12-05T19:08:57.979Z,11.88
2017-12-05T19:11:26.199Z,13.18
2017-12-05T19:13:55.175Z,13.52
2017-12-05T19:16:23.333Z,12.57
2017-12-05T19:18:52.438Z,11.63
2017-12-05T19:21:20.611Z,12.85
2017-12-05T19:23:48.802Z,13.40
2017-12-05T19:26:17.227Z,12.27
2017-12-05T19:28:45.421Z,10.85
2017-12-05T19:31:13.586Z,14.25
2017-12-05T19:33:41.794Z,12.52
2017-12-05T19:36:09.941Z,11.60
2017-12-05T19:38:38.103Z,11.60
2017-12-05T19:41:06.325Z,11.25
2017-12-05T19:43:34.489Z,12.10
2017-12-05T19:46:02.686Z,11.50
2017-12-05T19:48:30.999Z,10.77
2017-12-05T19:50:59.227Z,12.48
2017-12-05T19:53:27.574Z,11.98
2017-12-05T19:55:56.073Z,11.95
2017-12-05T19:58:25.391Z,11.88
2017-12-05T20:00:53.855Z,11.75
2017-12-05T20:03:23.070Z,13.82
2017-12-05T20:05:51.514Z,11.40
2017-12-05T20:08:19.945Z,11.82
2017-12-05T20:10:48.409Z,12.07
2017-12-05T20:13:17.061Z,10.95
2017-12-05T20:15:45.521Z,11.73
2017-12-05T20:18:13.920Z,11.52
2017-12-05T20:20:42.213Z,11.75
2017-12-05T20:23:10.504Z,10.90
2017-12-05T20:25:38.767Z,11.52
2017-12-05T20:28:07.181Z,11.40
2017-12-05T20:30:35.378Z,11.00
2017-12-05T20:33:04.299Z,11.70
2017-12-05T20:35:32.455Z,10.93
2017-12-05T20:38:04.215Z,10.30
2017-12-05T20:40:33.470Z,12.30
2017-12-05T20:43:01.968Z,9.55
2017-12-05T20:45:31.297Z,10.38
2017-12-05T20:47:59.793Z,10.88
2017-12-05T20:50:28.703Z,10.82
2017-12-05T20:52:57.163Z,11.57
2017-12-05T20:55:25.660Z,10.60
2017-12-05T20:57:54.880Z,11.12
2017-12-05T21:00:23.342Z,10.23
2017-12-05T21:02:53.054Z,10.50
2017-12-05T21:05:22.304Z,10.20
2017-12-05T21:07:50.862Z,9.90
2017-12-05T21:10:19.323Z,11.20
2017-12-05T21:12:48.587Z,10.75
2017-12-05T21:15:17.901Z,9.27
2017-12-05T21:17:46.421Z,11.18
2017-12-05T21:20:14.938Z,12.45
2017-12-05T21:22:43.438Z,10.20
2017-12-05T21:25:12.320Z,9.40
2017-12-05T21:27:49.232Z,10.65
2017-12-05T21:30:21.318Z,10.40
2017-12-05T21:32:49.839Z,10.88
2017-12-05T21:35:19.522Z,10.27
2017-12-05T21:37:48.999Z,9.65
2017-12-05T21:40:17.987Z,9.20
2017-12-05T21:42:46.291Z,11.10
2017-12-05T21:45:15.354Z,9.75
2017-12-05T21:47:45.707Z,10.30
2017-12-05T21:50:14.738Z,10.02
2017-12-05T21:52:42.942Z,9.57
2017-12-05T21:55:11.125Z,9.27
2017-12-05T21:57:40.289Z,9.70
2017-12-05T22:00:09.102Z,10.13
2017-12-05T22:02:37.835Z,10.60
2017-12-05T22:05:06.032Z,9.85
2017-12-05T22:07:35.029Z,11.35
2017-12-05T22:10:03.221Z,11.25
2017-12-05T22:12:31.390Z,10.63
2017-12-05T22:14:59.562Z,9.35
2017-12-05T22:17:30.226Z,9.38
2017-12-05T22:19:58.440Z,11.20
2017-12-05T22:22:27.389Z,10.38
2017-12-05T22:24:55.548Z,10.57
2017-12-05T22:27:26.018Z,11.55
2017-12-05T22:29:54.162Z,9.77
2017-12-05T22:32:23.166Z,8.00
2017-12-05T22:34:51.289Z,8.70
2017-12-05T22:37:19.471Z,10.10
2017-12-05T22:39:47.654Z,9.00
2017-12-05T22:42:15.842Z,10.38
2017-12-05T22:44:43.986Z,8.88
2017-12-05T22:47:13.183Z,9.65
2017-12-05T22:49:41.341Z,9.23
2017-12-05T22:52:10.282Z,11.02
2017-12-05T22:54:38.437Z,9.20
2017-12-05T22:57:06.699Z,8.70
2017-12-05T22:59:34.867Z,10.10
2017-12-05T23:02:04.129Z,8.57
2017-12-05T23:04:32.272Z,9.18
2017-12-05T23:07:00.492Z,8.95
2017-12-05T23:09:29.224Z,10.00
2017-12-05T23:11:58.098Z,8.63
2017-12-05T23:14:26.802Z,8.93
2017-12-05T23:16:54.974Z,8.32
2017-12-05T23:19:23.134Z,9.80
2017-12-05T23:21:52.318Z,8.50
2017-12-05T23:24:21.225Z,9.20
2017-12-05T23:26:49.377Z,9.88
2017-12-05T23:29:17.544Z,7.85
2017-12-05T23:31:45.713Z,7.28
2017-12-05T23:34:13.867Z,9.75
2017-12-05T23:36:42.042Z,9.65
2017-12-05T23:39:10.192Z,7.75
2017-12-05T23:41:38.353Z,9.15
2017-12-05T23:44:06.494Z,9.48
2017-12-05T23:46:36.026Z,9.95
2017-12-05T23:49:04.210Z,8.70
2017-12-05T23:51:32.396Z,9.80
2017-12-05T23:54:00.551Z,9.07
2017-12-05T23:56:28.731Z,9.80
2017-12-05T23:59:00.797Z,9.43
